createdAt,value
2018-03-31T00:00:55.707Z,0.00
2018-03-31T00:01:55.699Z,0.00
2018-03-31T00:02:55.620Z,0.00
2018-03-31T00:03:55.586Z,0.00
2018-03-31T00:04:55.540Z,0.00
2018-03-31T00:05:55.498Z,0.00
2018-03-31T00:06:55.460Z,0.00
2018-03-31T00:07:55.447Z,0.00
2018-03-31T00:08:55.372Z,0.00
2018-03-31T00:09:55.335Z,0.00
2018-03-31T00:10:55.291Z,0.00
2018-03-31T00:11:55.259Z,0.00
2018-03-31T00:12:55.220Z,0.00
2018-03-31T00:13:55.192Z,0.00
2018-03-31T00:14:55.131Z,0.00
2018-03-31T00:15:55.083Z,0.00
2018-03-31T00:16:55.044Z,0.00
2018-03-31T00:17:55.039Z,0.00
2018-03-31T00:18:54.969Z,0.00
2018-03-31T00:19:54.915Z,0.00
2018-03-31T00:20:54.880Z,0.00
2018-03-31T00:21:54.846Z,0.00
2018-03-31T00:22:54.806Z,0.00
2018-03-31T00:23:54.783Z,0.00
2018-03-31T00:24:54.720Z,0.00
2018-03-31T00:25:54.694Z,0.00
2018-03-31T00:26:54.632Z,0.00
2018-03-31T00:27:54.593Z,0.00
2018-03-31T00:28:54.552Z,0.00
2018-03-31T00:29:54.540Z,0.00
2018-03-31T00:30:54.469Z,0.00
2018-03-31T00:31:54.432Z,0.00
2018-03-31T00:32:54.390Z,0.00
2018-03-31T00:33:54.351Z,0.00
2018-03-31T00:34:54.345Z,0.00
2018-03-31T00:35:54.261Z,0.00
2018-03-31T00:36:54.219Z,0.00
2018-03-31T00:37:54.175Z,0.00
2018-03-31T00:38:54.174Z,0.00
2018-03-31T00:39:54.091Z,0.00
2018-03-31T00:40:54.080Z,0.00
2018-03-31T00:41:54.024Z,0.00
2018-03-31T00:42:53.964Z,0.00
2018-03-31T00:43:53.930Z,0.00
2018-03-31T00:44:53.915Z,0.00
2018-03-31T00:45:53.842Z,0.00
2018-03-31T00:46:53.810Z,0.00
2018-03-31T00:47:53.765Z,0.00
2018-03-31T00:48:53.761Z,0.00
2018-03-31T00:49:53.684Z,0.00
2018-03-31T00:50:53.668Z,0.00
2018-03-31T00:51:53.593Z,0.00
2018-03-31T00:52:53.552Z,0.00
2018-03-31T00:53:53.522Z,0.00
2018-03-31T00:54:53.468Z,0.00
2018-03-31T00:55:53.459Z,0.00
2018-03-31T00:56:53.389Z,0.00
2018-03-31T00:57:53.351Z,0.00
2018-03-31T00:58:53.311Z,0.00
2018-03-31T00:59:53.258Z,0.00
2018-03-31T01:00:53.219Z,0.00
2018-03-31T01:01:53.213Z,0.00
2018-03-31T01:02:53.144Z,0.00
2018-03-31T01:03:53.095Z,0.00
2018-03-31T01:04:53.058Z,0.00
2018-03-31T01:05:53.019Z,0.00
2018-03-31T01:06:52.970Z,0.00
2018-03-31T01:07:52.949Z,0.00
2018-03-31T01:08:52.888Z,0.00
2018-03-31T01:09:52.842Z,0.00
2018-03-31T01:10:52.849Z,0.00
2018-03-31T01:11:52.796Z,0.00
2018-03-31T01:12:52.715Z,0.00
2018-03-31T01:13:52.677Z,0.00
2018-03-31T01:14:52.630Z,0.00
2018-03-31T01:15:52.601Z,0.00
2018-03-31T01:16:52.561Z,0.00
2018-03-31T01:17:52.544Z,0.00
2018-03-31T01:18:52.468Z,0.00
2018-03-31T01:19:52.428Z,0.00
2018-03-31T01:20:52.386Z,0.00
2018-03-31T01:21:52.343Z,0.00
2018-03-31T01:22:52.306Z,0.00
2018-03-31T01:23:52.290Z,0.00
2018-03-31T01:24:52.212Z,0.00
2018-03-31T01:25:52.181Z,0.00
2018-03-31T01:26:52.143Z,0.00
2018-03-31T01:27:52.091Z,0.00
2018-03-31T01:28:52.058Z,0.00
2018-03-31T01:29:52.031Z,0.00
2018-03-31T01:30:51.964Z,0.00
2018-03-31T01:31:51.925Z,0.00
2018-03-31T01:32:51.881Z,0.00
2018-03-31T01:33:51.836Z,0.00
2018-03-31T01:34:51.789Z,0.00
2018-03-31T01:35:51.785Z,0.00
2018-03-31T01:36:51.723Z,0.00
2018-03-31T01:37:51.672Z,0.00
2018-03-31T01:38:51.620Z,0.00
2018-03-31T01:39:51.583Z,0.00
2018-03-31T01:40:51.540Z,0.00
2018-03-31T01:41:51.523Z,0.00
2018-03-31T01:42:51.460Z,0.00
2018-03-31T01:43:51.417Z,0.00
2018-03-31T01:44:51.373Z,0.00
2018-03-31T01:45:51.336Z,0.00
2018-03-31T01:46:51.281Z,0.00
2018-03-31T01:47:51.281Z,0.00
2018-03-31T01:48:51.203Z,0.00
2018-03-31T01:49:51.153Z,0.00
2018-03-31T01:50:51.114Z,0.00
2018-03-31T01:51:51.079Z,0.00
2018-03-31T01:52:51.038Z,0.00
2018-03-31T01:53:51.015Z,0.00
2018-03-31T01:54:50.946Z,0.00
2018-03-31T01:55:50.900Z,0.00
2018-03-31T01:56:50.859Z,0.00
2018-03-31T01:57:50.823Z,0.00
2018-03-31T01:58:50.803Z,0.00
2018-03-31T01:59:50.738Z,0.00
2018-03-31T02:00:50.696Z,0.00
2018-03-31T02:01:50.652Z,0.00
2018-03-31T02:02:50.609Z,0.00
2018-03-31T02:03:50.561Z,0.00
2018-03-31T02:04:50.540Z,0.00
2018-03-31T02:05:50.480Z,0.00
2018-03-31T02:06:50.440Z,0.00
2018-03-31T02:07:50.384Z,0.00
2018-03-31T02:08:50.383Z,0.00
2018-03-31T02:09:50.310Z,0.00
2018-03-31T02:10:50.261Z,0.00
2018-03-31T02:11:50.217Z,0.00
2018-03-31T02:12:50.171Z,0.00
2018-03-31T02:13:50.134Z,0.00
2018-03-31T02:14:50.119Z,0.00
2018-03-31T02:15:50.059Z,0.00
2018-03-31T02:16:50.017Z,0.00
2018-03-31T02:17:49.967Z,0.00
2018-03-31T02:18:49.924Z,0.00
2018-03-31T02:19:49.872Z,0.00
2018-03-31T02:20:49.856Z,0.00
2018-03-31T02:21:49.792Z,0.00
2018-03-31T02:22:49.748Z,0.00
2018-03-31T02:23:49.706Z,0.00
2018-03-31T02:24:49.663Z,0.00
2018-03-31T02:25:49.625Z,0.00
2018-03-31T02:26:49.596Z,0.00
2018-03-31T02:27:49.532Z,0.00
2018-03-31T02:28:49.498Z,0.00
2018-03-31T02:29:49.440Z,0.00
2018-03-31T02:30:49.410Z,0.00
2018-03-31T02:31:49.364Z,0.00
2018-03-31T02:32:49.340Z,0.00
2018-03-31T02:33:49.278Z,0.00
2018-03-31T02:34:49.228Z,0.00
2018-03-31T02:35:49.194Z,0.00
2018-03-31T02:36:49.156Z,0.00
2018-03-31T02:37:49.126Z,0.00
2018-03-31T02:38:49.063Z,0.00
2018-03-31T02:39:49.020Z,0.00
2018-03-31T02:40:48.984Z,0.00
2018-03-31T02:41:48.932Z,0.00
2018-03-31T02:42:48.888Z,0.00
2018-03-31T02:43:48.867Z,0.00
2018-03-31T02:44:48.793Z,0.00
2018-03-31T02:45:48.754Z,0.00
2018-03-31T02:46:48.712Z,0.00
2018-03-31T02:47:48.677Z,0.00
2018-03-31T02:48:48.630Z,0.00
2018-03-31T02:49:48.605Z,0.00
2018-03-31T02:50:48.545Z,0.00
2018-03-31T02:51:48.492Z,0.00
2018-03-31T02:52:48.455Z,0.00
2018-03-31T02:53:48.407Z,0.00
2018-03-31T02:54:48.367Z,0.00
2018-03-31T02:55:48.357Z,0.00
2018-03-31T02:56:48.282Z,0.00
2018-03-31T02:57:48.241Z,0.00
2018-03-31T02:58:48.192Z,0.00
2018-03-31T02:59:48.155Z,0.00
2018-03-31T03:00:48.106Z,0.00
2018-03-31T03:01:48.084Z,0.00
2018-03-31T03:02:48.021Z,0.00
2018-03-31T03:03:47.970Z,0.00
2018-03-31T03:04:47.930Z,0.00
2018-03-31T03:05:47.926Z,0.00
2018-03-31T03:06:47.838Z,0.00
2018-03-31T03:07:47.828Z,0.00
2018-03-31T03:08:47.757Z,0.00
2018-03-31T03:09:47.716Z,0.00
2018-03-31T03:10:47.678Z,0.00
2018-03-31T03:11:47.632Z,0.00
2018-03-31T03:12:47.612Z,0.00
2018-03-31T03:13:47.538Z,0.00
2018-03-31T03:14:47.493Z,0.00
2018-03-31T03:15:47.458Z,0.00
2018-03-31T03:16:47.402Z,0.00
2018-03-31T03:17:47.388Z,0.00
2018-03-31T03:18:47.313Z,0.00
2018-03-31T03:19:47.283Z,0.00
2018-03-31T03:20:47.237Z,0.00
2018-03-31T03:21:47.191Z,0.00
2018-03-31T03:22:47.185Z,0.00
2018-03-31T03:23:47.097Z,0.00
2018-03-31T03:24:47.058Z,0.00
2018-03-31T03:25:47.011Z,0.00
2018-03-31T03:26:46.970Z,0.00
2018-03-31T03:27:46.933Z,0.00
2018-03-31T03:28:46.917Z,0.00
2018-03-31T03:29:46.843Z,0.00
2018-03-31T03:30:46.792Z,0.00
2018-03-31T03:31:46.762Z,0.00
2018-03-31T03:32:46.720Z,0.00
2018-03-31T03:33:46.662Z,0.00
2018-03-31T03:34:46.649Z,0.00
2018-03-31T03:35:46.580Z,0.00
2018-03-31T03:36:46.539Z,0.00
2018-03-31T03:37:46.492Z,0.00
2018-03-31T03:38:46.447Z,0.00
2018-03-31T03:39:46.405Z,0.00
2018-03-31T03:40:46.398Z,0.00
2018-03-31T03:41:46.315Z,0.00
2018-03-31T03:42:46.275Z,0.00
2018-03-31T03:43:46.228Z,0.00
2018-03-31T03:44:46.193Z,0.00
2018-03-31T03:45:46.144Z,0.00
2018-03-31T03:46:46.129Z,0.00
2018-03-31T03:47:46.046Z,0.00
2018-03-31T03:48:46.014Z,0.00
2018-03-31T03:49:45.969Z,0.00
2018-03-31T03:50:45.920Z,0.00
2018-03-31T03:51:45.875Z,0.00
2018-03-31T03:52:45.865Z,0.00
2018-03-31T03:53:45.795Z,0.00
2018-03-31T03:54:45.749Z,0.00
2018-03-31T03:55:45.711Z,0.00
2018-03-31T03:56:45.652Z,0.00
2018-03-31T03:57:45.633Z,0.00
2018-03-31T03:58:45.592Z,0.00
2018-03-31T03:59:45.529Z,0.00
2018-03-31T04:00:45.477Z,0.00
2018-03-31T04:01:45.449Z,0.00
2018-03-31T04:02:45.394Z,0.00
2018-03-31T04:03:45.395Z,0.00
2018-03-31T04:04:45.309Z,0.00
2018-03-31T04:05:45.283Z,0.00
2018-03-31T04:06:45.220Z,0.00
2018-03-31T04:07:45.182Z,0.00
2018-03-31T04:08:45.167Z,0.00
2018-03-31T04:09:45.091Z,0.00
2018-03-31T04:10:45.037Z,0.00
2018-03-31T04:11:45.011Z,0.00
2018-03-31T04:12:44.963Z,0.00
2018-03-31T04:13:44.909Z,0.00
2018-03-31T04:14:44.897Z,0.00
2018-03-31T04:15:44.825Z,0.00
2018-03-31T04:16:44.799Z,0.00
2018-03-31T04:17:44.735Z,0.00
2018-03-31T04:18:44.712Z,0.00
2018-03-31T04:19:44.653Z,0.00
2018-03-31T04:20:44.638Z,0.00
2018-03-31T04:21:44.582Z,0.00
2018-03-31T04:22:44.516Z,0.00
2018-03-31T04:23:44.476Z,0.00
2018-03-31T04:24:44.440Z,0.00
2018-03-31T04:25:44.384Z,0.00
2018-03-31T04:26:44.383Z,0.00
2018-03-31T04:27:44.307Z,0.00
2018-03-31T04:28:44.259Z,0.00
2018-03-31T04:29:44.226Z,0.00
2018-03-31T04:30:44.164Z,0.00
2018-03-31T04:31:44.134Z,0.00
2018-03-31T04:32:44.113Z,0.00
2018-03-31T04:33:44.049Z,0.00
2018-03-31T04:34:44.012Z,0.00
2018-03-31T04:35:43.958Z,0.00
2018-03-31T04:36:43.914Z,0.00
2018-03-31T04:37:43.898Z,0.00
2018-03-31T04:38:43.823Z,0.00
2018-03-31T04:39:43.775Z,0.00
2018-03-31T04:40:43.727Z,0.00
2018-03-31T04:41:43.694Z,0.00
2018-03-31T04:42:43.675Z,0.00
2018-03-31T04:43:43.601Z,0.00
2018-03-31T04:44:43.563Z,0.00
2018-03-31T04:45:43.521Z,0.00
2018-03-31T04:46:43.481Z,0.00
2018-03-31T04:47:43.444Z,0.00
2018-03-31T04:48:43.380Z,0.00
2018-03-31T04:49:43.337Z,0.00
2018-03-31T04:50:43.305Z,0.00
2018-03-31T04:51:43.257Z,0.00
2018-03-31T04:52:43.238Z,0.00
2018-03-31T04:53:43.170Z,0.00
2018-03-31T04:54:43.111Z,0.00
2018-03-31T04:55:43.079Z,0.00
2018-03-31T04:56:43.041Z,0.00
2018-03-31T04:57:43.022Z,0.00
2018-03-31T04:58:42.946Z,0.00
2018-03-31T04:59:42.901Z,0.00
2018-03-31T05:00:42.852Z,0.00
2018-03-31T05:01:42.819Z,0.00
2018-03-31T05:02:42.778Z,5.63
2018-03-31T05:03:42.758Z,5.63
2018-03-31T05:04:42.676Z,5.63
2018-03-31T05:05:42.651Z,5.63
2018-03-31T05:06:42.590Z,5.63
2018-03-31T05:07:42.559Z,5.63
2018-03-31T05:08:42.505Z,5.63
2018-03-31T05:09:42.490Z,11.25
2018-03-31T05:10:42.440Z,11.25
2018-03-31T05:11:42.378Z,11.25
2018-03-31T05:12:42.331Z,11.25
2018-03-31T05:13:42.285Z,11.25
2018-03-31T05:14:42.272Z,16.88
2018-03-31T05:15:42.202Z,16.88
2018-03-31T05:16:42.159Z,16.88
2018-03-31T05:17:42.109Z,16.88
2018-03-31T05:18:42.063Z,22.50
2018-03-31T05:19:42.024Z,22.50
2018-03-31T05:20:42.007Z,22.50
2018-03-31T05:21:41.930Z,28.13
2018-03-31T05:22:41.894Z,28.13
2018-03-31T05:23:41.841Z,33.75
2018-03-31T05:24:41.805Z,33.75
2018-03-31T05:25:41.763Z,33.75
2018-03-31T05:26:41.745Z,39.38
2018-03-31T05:27:41.668Z,39.38
2018-03-31T05:28:41.627Z,45.00
2018-03-31T05:29:41.579Z,50.63
2018-03-31T05:30:41.545Z,50.63
2018-03-31T05:31:41.493Z,56.25
2018-03-31T05:32:41.481Z,56.25
2018-03-31T05:33:41.412Z,61.88
2018-03-31T05:34:41.358Z,67.50
2018-03-31T05:35:41.315Z,67.50
2018-03-31T05:36:41.267Z,73.13
2018-03-31T05:37:41.234Z,78.75
2018-03-31T05:38:41.206Z,78.75
2018-03-31T05:39:41.141Z,84.38
2018-03-31T05:40:41.100Z,90.00
2018-03-31T05:41:41.056Z,90.00
2018-03-31T05:42:41.015Z,95.63
2018-03-31T05:43:40.989Z,95.63
2018-03-31T05:44:40.915Z,101.25
2018-03-31T05:45:40.883Z,101.25
2018-03-31T05:46:40.832Z,106.88
2018-03-31T05:47:40.793Z,106.88
2018-03-31T05:48:40.745Z,112.50
2018-03-31T05:49:40.758Z,118.13
2018-03-31T05:50:40.656Z,118.13
2018-03-31T05:51:40.610Z,123.75
2018-03-31T05:52:40.569Z,129.38
2018-03-31T05:53:40.522Z,129.38
2018-03-31T05:54:40.478Z,135.00
2018-03-31T05:55:40.466Z,135.00
2018-03-31T05:56:40.397Z,140.63
2018-03-31T05:57:40.356Z,140.63
2018-03-31T05:58:40.308Z,146.25
2018-03-31T05:59:40.271Z,146.25
2018-03-31T06:00:40.229Z,151.88
2018-03-31T06:01:40.201Z,151.88
2018-03-31T06:02:40.134Z,157.50
2018-03-31T06:03:40.090Z,157.50
2018-03-31T06:04:40.042Z,157.50
2018-03-31T06:05:40.004Z,163.13
2018-03-31T06:06:39.985Z,163.13
2018-03-31T06:07:39.923Z,168.75
2018-03-31T06:08:39.870Z,174.38
2018-03-31T06:09:39.837Z,180.00
2018-03-31T06:10:39.788Z,196.88
2018-03-31T06:11:39.770Z,219.38
2018-03-31T06:12:39.702Z,225.00
2018-03-31T06:13:39.662Z,253.13
2018-03-31T06:14:39.624Z,258.75
2018-03-31T06:15:39.568Z,247.50
2018-03-31T06:16:39.559Z,236.25
2018-03-31T06:17:39.490Z,247.50
2018-03-31T06:18:39.445Z,258.75
2018-03-31T06:19:39.399Z,247.50
2018-03-31T06:20:39.356Z,286.88
2018-03-31T06:21:39.328Z,247.50
2018-03-31T06:22:39.306Z,258.75
2018-03-31T06:23:39.242Z,258.75
2018-03-31T06:24:39.195Z,253.13
2018-03-31T06:25:39.159Z,298.13
2018-03-31T06:26:39.103Z,292.50
2018-03-31T06:27:39.072Z,298.13
2018-03-31T06:28:39.053Z,298.13
2018-03-31T06:29:38.978Z,298.13
2018-03-31T06:30:39.001Z,298.13
2018-03-31T06:31:38.903Z,298.13
2018-03-31T06:32:38.861Z,303.75
2018-03-31T06:33:38.824Z,309.38
2018-03-31T06:34:38.803Z,309.38
2018-03-31T06:35:38.742Z,315.00
2018-03-31T06:36:38.694Z,315.00
2018-03-31T06:37:38.651Z,320.63
2018-03-31T06:38:38.609Z,331.88
2018-03-31T06:39:38.567Z,337.50
2018-03-31T06:40:38.558Z,343.13
2018-03-31T06:41:38.484Z,337.50
2018-03-31T06:42:38.452Z,348.75
2018-03-31T06:43:38.403Z,360.00
2018-03-31T06:44:38.369Z,376.88
2018-03-31T06:45:38.352Z,399.38
2018-03-31T06:46:38.353Z,399.38
2018-03-31T06:47:38.245Z,365.63
2018-03-31T06:48:38.210Z,382.50
2018-03-31T06:49:38.175Z,399.38
2018-03-31T06:50:38.119Z,410.63
2018-03-31T06:51:38.099Z,433.13
2018-03-31T06:52:38.044Z,466.88
2018-03-31T06:53:37.999Z,483.75
2018-03-31T06:54:37.967Z,495.00
2018-03-31T06:55:37.932Z,472.50
2018-03-31T06:56:37.912Z,517.50
2018-03-31T06:57:37.845Z,545.63
2018-03-31T06:58:37.803Z,517.50
2018-03-31T06:59:37.761Z,540.00
2018-03-31T07:00:37.914Z,517.50
2018-03-31T07:01:37.680Z,545.63
2018-03-31T07:02:37.670Z,596.25
2018-03-31T07:03:37.598Z,596.25
2018-03-31T07:04:37.565Z,596.25
2018-03-31T07:05:37.570Z,607.50
2018-03-31T07:06:37.480Z,624.38
2018-03-31T07:07:37.469Z,635.63
2018-03-31T07:08:37.403Z,641.25
2018-03-31T07:09:37.362Z,652.50
2018-03-31T07:10:37.339Z,691.88
2018-03-31T07:11:37.289Z,714.38
2018-03-31T07:12:37.286Z,691.88
2018-03-31T07:13:37.217Z,703.13
2018-03-31T07:14:37.177Z,697.50
2018-03-31T07:15:37.130Z,697.50
2018-03-31T07:16:37.094Z,697.50
2018-03-31T07:17:37.066Z,691.88
2018-03-31T07:18:37.050Z,720.00
2018-03-31T07:19:36.980Z,691.88
2018-03-31T07:20:36.948Z,680.63
2018-03-31T07:21:36.912Z,663.75
2018-03-31T07:22:36.875Z,646.88
2018-03-31T07:23:36.827Z,680.63
2018-03-31T07:24:36.815Z,663.75
2018-03-31T07:25:36.763Z,691.88
2018-03-31T07:26:36.720Z,725.63
2018-03-31T07:27:36.681Z,697.50
2018-03-31T07:28:36.646Z,652.50
2018-03-31T07:29:36.640Z,714.38
2018-03-31T07:30:36.566Z,736.88
2018-03-31T07:31:36.537Z,703.13
2018-03-31T07:32:36.494Z,742.50
2018-03-31T07:33:36.451Z,753.75
2018-03-31T07:34:36.432Z,798.75
2018-03-31T07:35:36.412Z,815.63
2018-03-31T07:36:36.399Z,765.00
2018-03-31T07:37:36.315Z,787.50
2018-03-31T07:38:36.269Z,866.25
2018-03-31T07:39:36.241Z,883.13
2018-03-31T07:40:36.199Z,866.25
2018-03-31T07:41:36.191Z,832.50
2018-03-31T07:42:36.127Z,781.88
2018-03-31T07:43:36.089Z,781.88
2018-03-31T07:44:36.062Z,787.50
2018-03-31T07:45:36.016Z,765.00
2018-03-31T07:46:35.983Z,781.88
2018-03-31T07:47:35.971Z,759.38
2018-03-31T07:48:35.905Z,697.50
2018-03-31T07:49:35.875Z,658.13
2018-03-31T07:50:35.828Z,793.13
2018-03-31T07:51:35.800Z,810.00
2018-03-31T07:52:35.807Z,815.63
2018-03-31T07:53:35.720Z,866.25
2018-03-31T07:54:35.738Z,894.38
2018-03-31T07:55:35.656Z,939.38
2018-03-31T07:56:35.633Z,928.13
2018-03-31T07:57:35.595Z,950.63
2018-03-31T07:58:35.570Z,1001.25
2018-03-31T07:59:35.521Z,1074.38
2018-03-31T08:00:35.479Z,1113.75
2018-03-31T08:01:35.460Z,1130.63
2018-03-31T08:02:35.396Z,1175.63
2018-03-31T08:03:35.370Z,1164.38
2018-03-31T08:04:35.357Z,1147.50
2018-03-31T08:05:35.293Z,1130.63
2018-03-31T08:06:35.272Z,1130.63
2018-03-31T08:07:35.228Z,1074.38
2018-03-31T08:08:35.205Z,1085.63
2018-03-31T08:09:35.190Z,1158.75
2018-03-31T08:10:35.119Z,1119.38
2018-03-31T08:11:35.099Z,1125.00
2018-03-31T08:12:35.070Z,1125.00
2018-03-31T08:13:35.014Z,1085.63
2018-03-31T08:14:34.987Z,1102.50
2018-03-31T08:15:34.986Z,990.00
2018-03-31T08:16:34.923Z,990.00
2018-03-31T08:17:34.882Z,1046.25
2018-03-31T08:18:34.863Z,1051.88
2018-03-31T08:19:34.813Z,1063.13
2018-03-31T08:20:34.775Z,1001.25
2018-03-31T08:21:34.777Z,1046.25
2018-03-31T08:22:34.720Z,1057.50
2018-03-31T08:23:34.685Z,1057.50
2018-03-31T08:24:34.689Z,1046.25
2018-03-31T08:25:34.612Z,984.38
2018-03-31T08:26:34.595Z,967.50
2018-03-31T08:27:34.586Z,1001.25
2018-03-31T08:28:34.516Z,1051.88
2018-03-31T08:29:34.482Z,1063.13
2018-03-31T08:30:34.474Z,1091.25
2018-03-31T08:31:34.419Z,1085.63
2018-03-31T08:32:34.378Z,1108.13
2018-03-31T08:33:34.375Z,1125.00
2018-03-31T08:34:34.321Z,1108.13
2018-03-31T08:35:34.276Z,1141.88
2018-03-31T08:36:34.251Z,1209.38
2018-03-31T08:37:34.216Z,1215.00
2018-03-31T08:38:34.189Z,1366.88
2018-03-31T08:39:34.166Z,1445.63
2018-03-31T08:40:34.118Z,1344.38
2018-03-31T08:41:34.087Z,1327.50
2018-03-31T08:42:34.042Z,1327.50
2018-03-31T08:43:34.016Z,1400.63
2018-03-31T08:44:34.010Z,1507.50
2018-03-31T08:45:33.948Z,1496.25
2018-03-31T08:46:33.928Z,1518.75
2018-03-31T08:47:33.883Z,1490.63
2018-03-31T08:48:33.864Z,1513.13
2018-03-31T08:49:33.837Z,1546.88
2018-03-31T08:50:33.793Z,1642.50
2018-03-31T08:51:33.762Z,1760.63
2018-03-31T08:52:33.725Z,1856.25
2018-03-31T08:53:33.691Z,1918.13
2018-03-31T08:54:33.690Z,2008.13
2018-03-31T08:55:33.641Z,2115.00
2018-03-31T08:56:33.596Z,2137.50
2018-03-31T08:57:33.565Z,2266.88
2018-03-31T08:58:33.534Z,2306.25
2018-03-31T08:59:33.504Z,2295.00
2018-03-31T09:00:33.545Z,2823.75
2018-03-31T09:01:33.439Z,2930.63
2018-03-31T09:02:33.402Z,2857.50
2018-03-31T09:03:33.370Z,2548.13
2018-03-31T09:04:33.334Z,2143.13
2018-03-31T09:05:33.309Z,1901.25
2018-03-31T09:06:33.303Z,1788.75
2018-03-31T09:07:33.251Z,1726.88
2018-03-31T09:08:33.219Z,1608.75
2018-03-31T09:09:33.181Z,1569.38
2018-03-31T09:10:33.153Z,1507.50
2018-03-31T09:11:33.151Z,1524.38
2018-03-31T09:12:33.081Z,1513.13
2018-03-31T09:13:33.056Z,1524.38
2018-03-31T09:14:33.041Z,1524.38
2018-03-31T09:15:32.999Z,1507.50
2018-03-31T09:16:32.999Z,1513.13
2018-03-31T09:17:32.931Z,1496.25
2018-03-31T09:18:32.898Z,1535.63
2018-03-31T09:19:32.869Z,1552.50
2018-03-31T09:20:32.842Z,1591.88
2018-03-31T09:21:32.835Z,1783.13
2018-03-31T09:22:32.774Z,2278.13
2018-03-31T09:23:32.750Z,2638.13
2018-03-31T09:24:32.722Z,2587.50
2018-03-31T09:25:32.683Z,2559.38
2018-03-31T09:26:32.650Z,2525.63
2018-03-31T09:27:32.668Z,2576.25
2018-03-31T09:28:32.598Z,2655.00
2018-03-31T09:29:32.567Z,2795.63
2018-03-31T09:30:32.534Z,2795.63
2018-03-31T09:31:32.514Z,2739.38
2018-03-31T09:32:32.478Z,2840.63
2018-03-31T09:33:32.471Z,3048.75
2018-03-31T09:34:32.408Z,2542.50
2018-03-31T09:35:32.397Z,2435.63
2018-03-31T09:36:32.344Z,3015.00
2018-03-31T09:37:32.333Z,3054.38
2018-03-31T09:38:32.340Z,3043.13
2018-03-31T09:39:32.310Z,3037.50
2018-03-31T09:40:32.241Z,3144.38
2018-03-31T09:41:32.219Z,3172.50
2018-03-31T09:42:32.178Z,3251.25
2018-03-31T09:43:32.169Z,3279.38
2018-03-31T09:44:32.138Z,3211.88
2018-03-31T09:45:32.096Z,3183.75
2018-03-31T09:46:32.061Z,3234.38
2018-03-31T09:47:32.033Z,3324.38
2018-03-31T09:48:32.032Z,3341.25
2018-03-31T09:49:31.966Z,3335.63
2018-03-31T09:50:31.961Z,3414.38
2018-03-31T09:51:31.928Z,3487.50
2018-03-31T09:52:31.898Z,3436.88
2018-03-31T09:53:31.878Z,3234.38
2018-03-31T09:54:31.858Z,3105.00
2018-03-31T09:55:31.809Z,3301.88
2018-03-31T09:56:31.779Z,3256.88
2018-03-31T09:57:31.739Z,3481.88
2018-03-31T09:58:31.724Z,3335.63
2018-03-31T09:59:31.683Z,3391.88
2018-03-31T10:00:31.683Z,3375.00
2018-03-31T10:01:31.629Z,3493.13
2018-03-31T10:02:31.613Z,3470.63
2018-03-31T10:03:31.565Z,3504.38
2018-03-31T10:04:31.585Z,3375.00
2018-03-31T10:05:31.554Z,3234.38
2018-03-31T10:06:31.499Z,3240.00
2018-03-31T10:07:31.473Z,3273.75
2018-03-31T10:08:31.420Z,3380.63
2018-03-31T10:09:31.404Z,3515.63
2018-03-31T10:10:31.395Z,3560.63
2018-03-31T10:11:31.351Z,3521.25
2018-03-31T10:12:31.345Z,3600.00
2018-03-31T10:13:31.288Z,3414.38
2018-03-31T10:14:31.250Z,3420.00
2018-03-31T10:15:31.247Z,3577.50
2018-03-31T10:16:31.197Z,3549.38
2018-03-31T10:17:31.178Z,3532.50
2018-03-31T10:18:31.159Z,3645.00
2018-03-31T10:19:31.104Z,3639.38
2018-03-31T10:20:31.087Z,3560.63
2018-03-31T10:21:31.103Z,3566.25
2018-03-31T10:22:31.045Z,3661.88
2018-03-31T10:23:31.009Z,3622.50
2018-03-31T10:24:30.991Z,3645.00
2018-03-31T10:25:30.946Z,3521.25
2018-03-31T10:26:30.931Z,3583.13
2018-03-31T10:27:30.935Z,3656.25
2018-03-31T10:28:30.874Z,3583.13
2018-03-31T10:29:30.831Z,3633.75
2018-03-31T10:30:30.816Z,3543.75
2018-03-31T10:31:30.773Z,3577.50
2018-03-31T10:32:30.778Z,3678.75
2018-03-31T10:33:30.776Z,3740.63
2018-03-31T10:34:30.720Z,3695.63
2018-03-31T10:35:30.673Z,3746.25
2018-03-31T10:36:30.678Z,3774.38
2018-03-31T10:37:30.649Z,3690.00
2018-03-31T10:38:30.641Z,3813.75
2018-03-31T10:39:30.620Z,3645.00
2018-03-31T10:40:30.531Z,3566.25
2018-03-31T10:41:30.508Z,3735.00
2018-03-31T10:42:30.490Z,3526.88
2018-03-31T10:43:30.457Z,3414.38
2018-03-31T10:44:30.439Z,3335.63
2018-03-31T10:45:30.430Z,3285.00
2018-03-31T10:46:30.385Z,3504.38
2018-03-31T10:47:30.394Z,3633.75
2018-03-31T10:48:30.321Z,3684.38
2018-03-31T10:49:30.318Z,3498.75
2018-03-31T10:50:30.272Z,3442.50
2018-03-31T10:51:30.268Z,3543.75
2018-03-31T10:52:30.218Z,3656.25
2018-03-31T10:53:30.201Z,3746.25
2018-03-31T10:54:30.155Z,3571.88
2018-03-31T10:55:30.123Z,3616.88
2018-03-31T10:56:30.128Z,3684.38
2018-03-31T10:57:30.080Z,3729.38
2018-03-31T10:58:30.043Z,3701.25
2018-03-31T10:59:30.019Z,3470.63
2018-03-31T11:00:29.993Z,3588.75
2018-03-31T11:01:29.973Z,3791.25
2018-03-31T11:02:29.973Z,3690.00
2018-03-31T11:03:29.916Z,3611.25
2018-03-31T11:04:29.910Z,3521.25
2018-03-31T11:05:29.909Z,3493.13
2018-03-31T11:06:29.839Z,3526.88
2018-03-31T11:07:29.820Z,3594.38
2018-03-31T11:08:29.813Z,3690.00
2018-03-31T11:09:29.776Z,3093.75
2018-03-31T11:10:29.736Z,3493.13
2018-03-31T11:11:29.726Z,590.63
2018-03-31T11:12:29.690Z,613.13
2018-03-31T11:13:29.644Z,2643.75
2018-03-31T11:14:29.639Z,3436.88
2018-03-31T11:15:29.606Z,3330.00
2018-03-31T11:16:29.583Z,3448.13
2018-03-31T11:17:29.565Z,3566.25
2018-03-31T11:18:29.538Z,3487.50
2018-03-31T11:19:29.535Z,3431.25
2018-03-31T11:20:29.456Z,3436.88
2018-03-31T11:21:29.433Z,3498.75
2018-03-31T11:22:29.412Z,3442.50
2018-03-31T11:23:29.381Z,3465.00
2018-03-31T11:24:29.352Z,3436.88
2018-03-31T11:25:29.344Z,3476.25
2018-03-31T11:26:29.301Z,3487.50
2018-03-31T11:27:29.262Z,3431.25
2018-03-31T11:28:29.252Z,3425.63
2018-03-31T11:29:29.212Z,3465.00
2018-03-31T11:30:29.190Z,3588.75
2018-03-31T11:31:29.185Z,3616.88
2018-03-31T11:32:29.124Z,3661.88
2018-03-31T11:33:29.102Z,3650.63
2018-03-31T11:34:29.078Z,3684.38
2018-03-31T11:35:29.051Z,3611.25
2018-03-31T11:36:29.050Z,2559.38
2018-03-31T11:37:28.994Z,1906.88
2018-03-31T11:38:28.962Z,2649.38
2018-03-31T11:39:28.962Z,3105.00
2018-03-31T11:40:28.913Z,3358.13
2018-03-31T11:41:28.889Z,3476.25
2018-03-31T11:42:28.903Z,3583.13
2018-03-31T11:43:28.848Z,3538.13
2018-03-31T11:44:28.837Z,3560.63
2018-03-31T11:45:28.805Z,3442.50
2018-03-31T11:46:28.766Z,3515.63
2018-03-31T11:47:28.754Z,3476.25
2018-03-31T11:48:28.727Z,3346.88
2018-03-31T11:49:28.660Z,3375.00
2018-03-31T11:50:28.646Z,3330.00
2018-03-31T11:51:28.614Z,3324.38
2018-03-31T11:52:28.584Z,3358.13
2018-03-31T11:53:28.584Z,3493.13
2018-03-31T11:54:28.530Z,3656.25
2018-03-31T11:55:28.516Z,3594.38
2018-03-31T11:56:28.485Z,3178.13
2018-03-31T11:57:28.452Z,2975.63
2018-03-31T11:58:28.446Z,3448.13
2018-03-31T11:59:28.392Z,3521.25
2018-03-31T12:00:28.377Z,3268.13
2018-03-31T12:01:28.337Z,1524.38
2018-03-31T12:02:28.331Z,2784.38
2018-03-31T12:03:28.333Z,2559.38
2018-03-31T12:04:28.275Z,3645.00
2018-03-31T12:05:28.269Z,3600.00
2018-03-31T12:06:28.207Z,1479.38
2018-03-31T12:07:28.206Z,2233.13
2018-03-31T12:08:28.177Z,1333.13
2018-03-31T12:09:28.162Z,3448.13
2018-03-31T12:10:28.124Z,1344.38
2018-03-31T12:11:28.084Z,1310.63
2018-03-31T12:12:28.055Z,1074.38
2018-03-31T12:13:28.024Z,1006.88
2018-03-31T12:14:28.013Z,945.00
2018-03-31T12:15:27.999Z,877.50
2018-03-31T12:16:27.932Z,798.75
2018-03-31T12:17:27.904Z,731.25
2018-03-31T12:18:27.873Z,675.00
2018-03-31T12:19:27.843Z,635.63
2018-03-31T12:20:27.854Z,607.50
2018-03-31T12:21:27.794Z,585.00
2018-03-31T12:22:27.790Z,579.38
2018-03-31T12:23:27.732Z,573.75
2018-03-31T12:24:27.716Z,579.38
2018-03-31T12:25:27.679Z,585.00
2018-03-31T12:26:27.708Z,590.63
2018-03-31T12:27:27.636Z,590.63
2018-03-31T12:28:27.593Z,573.75
2018-03-31T12:29:27.555Z,562.50
2018-03-31T12:30:27.536Z,545.63
2018-03-31T12:31:27.545Z,523.13
2018-03-31T12:32:27.486Z,506.25
2018-03-31T12:33:27.427Z,495.00
2018-03-31T12:34:27.406Z,489.38
2018-03-31T12:35:27.353Z,489.38
2018-03-31T12:36:27.320Z,489.38
2018-03-31T12:37:27.303Z,495.00
2018-03-31T12:38:27.282Z,511.88
2018-03-31T12:39:27.226Z,523.13
2018-03-31T12:40:27.193Z,528.75
2018-03-31T12:41:27.158Z,540.00